sensor_id;sensor_type;location;lat;lon;timestamp;pressure;altitude;pressure_sealevel;temperature;humidity
77631;BME280;66798;47.370;8.552;2023-05-06T05:38:23;96779.97;;;17.03;73.09
77631;BME280;66798;47.370;8.552;2023-05-06T05:40:48;96779.56;;;17.09;72.76
77631;BME280;66798;47.370;8.552;2023-05-06T05:43:13;96777.13;;;16.99;72.23
77631;BME280;66798;47.370;8.552;2023-05-06T05:45:39;96784.19;;;17.04;72.73
77631;BME280;66798;47.370;8.552;2023-05-06T05:48:05;96784.63;;;17.19;72.04
77631;BME280;66798;47.370;8.552;2023-05-06T05:50:30;96780.09;;;17.60;72.84
77631;BME280;66798;47.370;8.552;2023-05-06T05:52:56;96779.44;;;17.86;70.24
77631;BME280;66798;47.370;8.552;2023-05-06T05:55:21;96776.97;;;17.98;70.01
77631;BME280;66798;47.370;8.552;2023-05-06T05:57:47;96778.25;;;18.09;69.24
77631;BME280;66798;47.370;8.552;2023-05-06T06:00:12;96771.97;;;18.05;69.38
77631;BME280;66798;47.370;8.552;2023-05-06T06:02:38;96773.88;;;18.04;69.09
77631;BME280;66798;47.370;8.552;2023-05-06T06:08:26;96769.63;;;18.03;68.94
77631;BME280;66798;47.370;8.552;2023-05-06T06:10:54;96769.78;;;18.16;68.59
77631;BME280;66798;47.370;8.552;2023-05-06T06:13:19;96770.31;;;18.35;68.45
77631;BME280;66798;47.370;8.552;2023-05-06T06:15:45;96761.66;;;18.47;67.69
77631;BME280;66798;47.370;8.552;2023-05-06T06:18:10;96768.25;;;18.41;67.38
77631;BME280;66798;47.370;8.552;2023-05-06T06:20:36;96763.09;;;18.44;67.61
77631;BME280;66798;47.370;8.552;2023-05-06T06:23:02;96765.09;;;18.30;68.60
77631;BME280;66798;47.370;8.552;2023-05-06T06:25:27;96771.06;;;18.71;69.07
77631;BME280;66798;47.370;8.552;2023-05-06T06:27:55;96768.22;;;19.10;67.71
77631;BME280;66798;47.370;8.552;2023-05-06T06:30:21;96766.75;;;19.30;66.12
77631;BME280;66798;47.370;8.552;2023-05-06T06:32:48;96769.66;;;19.55;66.41
77631;BME280;66798;47.370;8.552;2023-05-06T06:35:14;96770.41;;;19.64;64.61
77631;BME280;66798;47.370;8.552;2023-05-06T06:37:40;96774.91;;;19.43;65.08
77631;BME280;66798;47.370;8.552;2023-05-06T06:40:06;96765.09;;;19.56;64.38
77631;BME280;66798;47.370;8.552;2023-05-06T06:42:31;96768.25;;;19.49;64.70
77631;BME280;66798;47.370;8.552;2023-05-06T06:44:57;96776.97;;;19.76;65.39
77631;BME280;66798;47.370;8.552;2023-05-06T06:47:22;96785.75;;;20.35;64.37
77631;BME280;66798;47.370;8.552;2023-05-06T06:49:48;96776.25;;;20.68;62.30
77631;BME280;66798;47.370;8.552;2023-05-06T06:52:13;96778.94;;;20.68;61.39
77631;BME280;66798;47.370;8.552;2023-05-06T06:54:38;96779.13;;;20.63;60.77
77631;BME280;66798;47.370;8.552;2023-05-06T06:57:05;96773.09;;;20.24;61.27
77631;BME280;66798;47.370;8.552;2023-05-06T06:59:31;96776.38;;;20.00;61.52
77631;BME280;66798;47.370;8.552;2023-05-06T07:01:56;96781.63;;;19.87;61.51
77631;BME280;66798;47.370;8.552;2023-05-06T07:04:21;96785.81;;;19.59;62.64
77631;BME280;66798;47.370;8.552;2023-05-06T07:06:49;96783.34;;;19.45;62.92
77631;BME280;66798;47.370;8.552;2023-05-06T07:09:14;96787.38;;;19.60;63.63
77631;BME280;66798;47.370;8.552;2023-05-06T07:11:41;96783.91;;;20.27;62.25
77631;BME280;66798;47.370;8.552;2023-05-06T07:14:06;96792.59;;;20.87;60.05
77631;BME280;66798;47.370;8.552;2023-05-06T07:16:32;96793.75;;;20.98;58.89
77631;BME280;66798;47.370;8.552;2023-05-06T07:18:59;96785.03;;;20.89;58.47
77631;BME280;66798;47.370;8.552;2023-05-06T07:21:25;96788.56;;;20.81;59.37
77631;BME280;66798;47.370;8.552;2023-05-06T07:23:51;96788.44;;;21.11;58.59
77631;BME280;66798;47.370;8.552;2023-05-06T07:26:17;96792.13;;;21.64;58.21
77631;BME280;66798;47.370;8.552;2023-05-06T07:28:42;96793.81;;;22.18;55.44
77631;BME280;66798;47.370;8.552;2023-05-06T07:31:08;96787.75;;;22.45;55.21
77631;BME280;66798;47.370;8.552;2023-05-06T07:33:33;96784.50;;;22.52;54.36
77631;BME280;66798;47.370;8.552;2023-05-06T07:35:59;96788.00;;;22.68;54.23
77631;BME280;66798;47.370;8.552;2023-05-06T07:38:24;96779.50;;;22.79;54.08
77631;BME280;66798;47.370;8.552;2023-05-06T07:40:50;96779.00;;;22.89;52.92
77631;BME280;66798;47.370;8.552;2023-05-06T07:43:15;96783.59;;;23.17;52.45
77631;BME280;66798;47.370;8.552;2023-05-06T07:45:41;96782.72;;;23.28;51.66
77631;BME280;66798;47.370;8.552;2023-05-06T07:48:06;96780.69;;;23.69;51.62
77631;BME280;66798;47.370;8.552;2023-05-06T07:50:32;96774.97;;;23.71;50.38
77631;BME280;66798;47.370;8.552;2023-05-06T07:52:58;96780.53;;;23.94;50.36
77631;BME280;66798;47.370;8.552;2023-05-06T07:55:24;96778.22;;;24.12;50.57
77631;BME280;66798;47.370;8.552;2023-05-06T07:57:50;96783.00;;;24.38;49.79
77631;BME280;66798;47.370;8.552;2023-05-06T08:00:15;96784.06;;;24.33;47.99
77631;BME280;66798;47.370;8.552;2023-05-06T08:02:41;96781.03;;;24.00;49.31
77631;BME280;66798;47.370;8.552;2023-05-06T08:05:09;96786.13;;;24.56;48.34
77631;BME280;66798;47.370;8.552;2023-05-06T08:07:35;96783.34;;;24.91;47.44
77631;BME280;66798;47.370;8.552;2023-05-06T08:10:01;96788.16;;;24.82;46.24
77631;BME280;66798;47.370;8.552;2023-05-06T08:12:27;96782.72;;;24.98;46.46
77631;BME280;66798;47.370;8.552;2023-05-06T08:14:52;96779.03;;;24.67;46.79
77631;BME280;66798;47.370;8.552;2023-05-06T08:17:19;96789.78;;;25.06;46.74
77631;BME280;66798;47.370;8.552;2023-05-06T08:19:45;96782.25;;;25.15;47.31
77631;BME280;66798;47.370;8.552;2023-05-06T08:22:10;96783.72;;;25.32;45.98
77631;BME280;66798;47.370;8.552;2023-05-06T08:24:36;96782.25;;;25.58;44.27
77631;BME280;66798;47.370;8.552;2023-05-06T08:27:02;96781.47;;;25.15;45.68
77631;BME280;66798;47.370;8.552;2023-05-06T08:29:27;96786.97;;;25.41;46.21
77631;BME280;66798;47.370;8.552;2023-05-06T08:31:53;96777.94;;;25.11;45.65
77631;BME280;66798;47.370;8.552;2023-05-06T08:34:18;96777.16;;;25.30;46.39
77631;BME280;66798;47.370;8.552;2023-05-06T08:36:46;96777.63;;;25.35;45.07
77631;BME280;66798;47.370;8.552;2023-05-06T08:39:12;96772.59;;;25.14;45.67
77631;BME280;66798;47.370;8.552;2023-05-06T08:41:39;96787.78;;;25.46;46.37
77631;BME280;66798;47.370;8.552;2023-05-06T08:44:06;96779.31;;;25.43;46.09
77631;BME280;66798;47.370;8.552;2023-05-06T08:46:32;96776.66;;;25.70;45.91
77631;BME280;66798;47.370;8.552;2023-05-06T08:48:58;96777.91;;;25.99;45.12
77631;BME280;66798;47.370;8.552;2023-05-06T08:51:28;96777.56;;;26.01;44.23
77631;BME280;66798;47.370;8.552;2023-05-06T08:53:59;96766.88;;;25.85;44.39
77631;BME280;66798;47.370;8.552;2023-05-06T08:56:29;96773.66;;;25.98;44.59
77631;BME280;66798;47.370;8.552;2023-05-06T08:58:57;96772.22;;;26.35;44.23
77631;BME280;66798;47.370;8.552;2023-05-06T09:01:24;96769.47;;;26.31;43.64
77631;BME280;66798;47.370;8.552;2023-05-06T09:03:51;96771.72;;;26.25;44.83
77631;BME280;66798;47.370;8.552;2023-05-06T09:06:17;96764.22;;;26.42;44.43
77631;BME280;66798;47.370;8.552;2023-05-06T09:08:43;96767.75;;;26.46;44.24
77631;BME280;66798;47.370;8.552;2023-05-06T09:11:25;96767.13;;;26.56;44.37
77631;BME280;66798;47.370;8.552;2023-05-06T09:14:08;96768.16;;;26.78;43.94
77631;BME280;66798;47.370;8.552;2023-05-06T09:16:36;96759.69;;;26.80;44.23
77631;BME280;66798;47.370;8.552;2023-05-06T09:19:02;96764.16;;;27.02;43.24
77631;BME280;66798;47.370;8.552;2023-05-06T09:21:34;96765.22;;;26.57;42.44
77631;BME280;66798;47.370;8.552;2023-05-06T09:24:02;96761.28;;;26.24;43.15
77631;BME280;66798;47.370;8.552;2023-05-06T09:26:29;96760.78;;;25.88;43.95
77631;BME280;66798;47.370;8.552;2023-05-06T09:28:56;96753.97;;;25.71;44.46
77631;BME280;66798;47.370;8.552;2023-05-06T09:31:23;96749.22;;;25.64;44.86
77631;BME280;66798;47.370;8.552;2023-05-06T09:33:50;96745.63;;;25.80;44.79
77631;BME280;66798;47.370;8.552;2023-05-06T09:36:16;96751.06;;;25.83;43.72
77631;BME280;66798;47.370;8.552;2023-05-06T09:38:41;96749.09;;;25.80;44.65
77631;BME280;66798;47.370;8.552;2023-05-06T09:41:07;96752.22;;;25.59;44.04
77631;BME280;66798;47.370;8.552;2023-05-06T09:43:34;96741.25;;;25.02;45.66
77631;BME280;66798;47.370;8.552;2023-05-06T09:46:02;96745.31;;;24.93;46.06
77631;BME280;66798;47.370;8.552;2023-05-06T09:48:30;96736.41;;;25.12;46.16
77631;BME280;66798;47.370;8.552;2023-05-06T09:50:56;96728.72;;;25.33;46.41
77631;BME280;66798;47.370;8.552;2023-05-06T09:53:24;96734.09;;;25.56;46.02
77631;BME280;66798;47.370;8.552;2023-05-06T09:55:52;96730.75;;;25.63;44.61
77631;BME280;66798;47.370;8.552;2023-05-06T09:58:21;96720.50;;;25.72;45.25
77631;BME280;66798;47.370;8.552;2023-05-06T10:00:48;96720.63;;;26.06;46.30
77631;BME280;66798;47.370;8.552;2023-05-06T10:03:16;96719.31;;;26.26;43.25
77631;BME280;66798;47.370;8.552;2023-05-06T10:05:43;96710.94;;;26.32;43.28
77631;BME280;66798;47.370;8.552;2023-05-06T10:08:10;96717.88;;;26.02;43.71
77631;BME280;66798;47.370;8.552;2023-05-06T10:10:40;96708.88;;;26.21;46.08
77631;BME280;66798;47.370;8.552;2023-05-06T10:13:07;96699.69;;;26.56;43.57
77631;BME280;66798;47.370;8.552;2023-05-06T10:15:33;96710.84;;;26.55;41.25
77631;BME280;66798;47.370;8.552;2023-05-06T10:17:59;96697.31;;;26.88;42.16
77631;BME280;66798;47.370;8.552;2023-05-06T10:20:30;96698.06;;;26.85;42.52
77631;BME280;66798;47.370;8.552;2023-05-06T10:23:08;96691.25;;;26.99;41.86
77631;BME280;66798;47.370;8.552;2023-05-06T10:25:41;96687.44;;;27.03;40.77
77631;BME280;66798;47.370;8.552;2023-05-06T10:28:10;96682.25;;;27.25;42.90
77631;BME280;66798;47.370;8.552;2023-05-06T10:30:37;96681.75;;;27.60;42.79
77631;BME280;66798;47.370;8.552;2023-05-06T10:33:14;96673.06;;;27.92;41.49
77631;BME280;66798;47.370;8.552;2023-05-06T10:38:22;96679.41;;;28.25;40.26
77631;BME280;66798;47.370;8.552;2023-05-06T10:40:50;96681.81;;;28.48;39.94
77631;BME280;66798;47.370;8.552;2023-05-06T10:43:23;96674.13;;;28.64;41.21
77631;BME280;66798;47.370;8.552;2023-05-06T10:48:27;96666.78;;;28.65;37.61
77631;BME280;66798;47.370;8.552;2023-05-06T10:56:32;96659.59;;;28.03;37.99
77631;BME280;66798;47.370;8.552;2023-05-06T11:01:32;96656.34;;;27.79;38.53
77631;BME280;66798;47.370;8.552;2023-05-06T11:04:04;96663.59;;;27.64;38.62
77631;BME280;66798;47.370;8.552;2023-05-06T11:06:40;96665.69;;;27.30;37.53
77631;BME280;66798;47.370;8.552;2023-05-06T11:14:26;96656.78;;;26.47;39.89
77631;BME280;66798;47.370;8.552;2023-05-06T11:16:53;96657.84;;;26.73;39.88
77631;BME280;66798;47.370;8.552;2023-05-06T11:19:22;96652.09;;;26.78;37.94
77631;BME280;66798;47.370;8.552;2023-05-06T11:21:49;96645.28;;;26.92;38.64
77631;BME280;66798;47.370;8.552;2023-05-06T11:24:28;96642.88;;;26.79;37.71
77631;BME280;66798;47.370;8.552;2023-05-06T11:26:59;96636.97;;;27.11;38.59
77631;BME280;66798;47.370;8.552;2023-05-06T11:29:25;96633.56;;;27.18;38.97
77631;BME280;66798;47.370;8.552;2023-05-06T11:31:51;96639.09;;;27.32;39.74
77631;BME280;66798;47.370;8.552;2023-05-06T11:34:28;96638.75;;;27.41;37.64
77631;BME280;66798;47.370;8.552;2023-05-06T11:36:57;96635.34;;;27.51;38.73
77631;BME280;66798;47.370;8.552;2023-05-06T11:39:24;96636.03;;;27.37;38.21
77631;BME280;66798;47.370;8.552;2023-05-06T11:42:12;96631.56;;;26.66;37.25
77631;BME280;66798;47.370;8.552;2023-05-06T11:44:38;96628.44;;;26.64;38.07
77631;BME280;66798;47.370;8.552;2023-05-06T11:47:07;96629.38;;;26.79;39.01
77631;BME280;66798;47.370;8.552;2023-05-06T11:49:40;96627.19;;;26.96;39.44
77631;BME280;66798;47.370;8.552;2023-05-06T11:52:11;96622.94;;;26.95;39.15
77631;BME280;66798;47.370;8.552;2023-05-06T11:54:39;96613.41;;;27.08;39.07
77631;BME280;66798;47.370;8.552;2023-05-06T11:57:05;96615.09;;;27.23;39.38
77631;BME280;66798;47.370;8.552;2023-05-06T11:59:32;96611.84;;;27.07;38.90
77631;BME280;66798;47.370;8.552;2023-05-06T12:02:02;96618.28;;;26.92;37.60
77631;BME280;66798;47.370;8.552;2023-05-06T12:04:38;96613.31;;;26.97;38.75
77631;BME280;66798;47.370;8.552;2023-05-06T12:07:07;96616.44;;;26.99;38.39
77631;BME280;66798;47.370;8.552;2023-05-06T12:09:34;96610.22;;;26.95;38.16
77631;BME280;66798;47.370;8.552;2023-05-06T12:12:02;96603.28;;;26.98;39.01
77631;BME280;66798;47.370;8.552;2023-05-06T12:14:28;96602.16;;;26.99;37.93
77631;BME280;66798;47.370;8.552;2023-05-06T12:16:54;96605.03;;;27.20;37.56
77631;BME280;66798;47.370;8.552;2023-05-06T12:19:20;96588.59;;;27.43;37.38
77631;BME280;66798;47.370;8.552;2023-05-06T12:21:46;96593.59;;;27.41;37.95
77631;BME280;66798;47.370;8.552;2023-05-06T12:24:11;96598.69;;;27.53;36.74
77631;BME280;66798;47.370;8.552;2023-05-06T12:26:47;96604.88;;;27.58;36.46
77631;BME280;66798;47.370;8.552;2023-05-06T12:29:15;96592.53;;;27.53;35.92
77631;BME280;66798;47.370;8.552;2023-05-06T12:31:45;96589.81;;;27.53;36.06
77631;BME280;66798;47.370;8.552;2023-05-06T12:34:12;96589.34;;;27.37;37.69
77631;BME280;66798;47.370;8.552;2023-05-06T12:36:39;96586.69;;;27.44;36.59
77631;BME280;66798;47.370;8.552;2023-05-06T12:39:05;96585.59;;;27.56;36.92
77631;BME280;66798;47.370;8.552;2023-05-06T12:44:02;96585.25;;;27.68;36.46
77631;BME280;66798;47.370;8.552;2023-05-06T12:46:27;96580.25;;;27.70;35.41
77631;BME280;66798;47.370;8.552;2023-05-06T12:48:57;96582.41;;;27.43;36.63
77631;BME280;66798;47.370;8.552;2023-05-06T12:51:23;96586.63;;;27.37;36.93
77631;BME280;66798;47.370;8.552;2023-05-06T12:53:49;96579.25;;;27.30;36.15
77631;BME280;66798;47.370;8.552;2023-05-06T12:56:14;96586.69;;;27.44;37.71
77631;BME280;66798;47.370;8.552;2023-05-06T12:58:40;96589.38;;;27.44;37.47
77631;BME280;66798;47.370;8.552;2023-05-06T13:01:05;96590.47;;;27.32;36.71
77631;BME280;66798;47.370;8.552;2023-05-06T13:03:34;96581.91;;;27.26;37.12
77631;BME280;66798;47.370;8.552;2023-05-06T13:06:00;96588.34;;;27.11;37.54
77631;BME280;66798;47.370;8.552;2023-05-06T13:08:27;96582.91;;;27.07;37.86
77631;BME280;66798;47.370;8.552;2023-05-06T13:10:52;96574.09;;;27.14;37.79
77631;BME280;66798;47.370;8.552;2023-05-06T13:13:18;96569.47;;;27.15;38.01
77631;BME280;66798;47.370;8.552;2023-05-06T13:15:43;96574.03;;;27.07;38.82
77631;BME280;66798;47.370;8.552;2023-05-06T13:18:09;96568.34;;;27.16;37.39
77631;BME280;66798;47.370;8.552;2023-05-06T13:20:34;96568.22;;;27.01;37.76
77631;BME280;66798;47.370;8.552;2023-05-06T13:23:00;96573.25;;;27.03;37.69
77631;BME280;66798;47.370;8.552;2023-05-06T13:25:26;96560.53;;;27.03;38.14
77631;BME280;66798;47.370;8.552;2023-05-06T13:27:51;96563.78;;;26.75;37.69
77631;BME280;66798;47.370;8.552;2023-05-06T13:30:17;96560.03;;;26.87;38.09
77631;BME280;66798;47.370;8.552;2023-05-06T13:32:43;96558.44;;;26.82;37.55
77631;BME280;66798;47.370;8.552;2023-05-06T13:35:09;96549.31;;;26.53;37.20
77631;BME280;66798;47.370;8.552;2023-05-06T13:37:35;96541.38;;;26.71;38.14
77631;BME280;66798;47.370;8.552;2023-05-06T13:40:00;96540.75;;;26.88;38.47
77631;BME280;66798;47.370;8.552;2023-05-06T13:42:25;96542.25;;;26.82;37.62
77631;BME280;66798;47.370;8.552;2023-05-06T13:44:51;96534.75;;;26.58;37.88
77631;BME280;66798;47.370;8.552;2023-05-06T13:47:16;96532.69;;;25.76;37.62
77631;BME280;66798;47.370;8.552;2023-05-06T13:49:42;96538.28;;;25.60;38.26
77631;BME280;66798;47.370;8.552;2023-05-06T13:52:07;96537.47;;;25.56;38.62
77631;BME280;66798;47.370;8.552;2023-05-06T13:54:33;96536.44;;;24.62;41.06
77631;BME280;66798;47.370;8.552;2023-05-06T13:56:58;96534.28;;;24.94;40.80
77631;BME280;66798;47.370;8.552;2023-05-06T13:59:24;96529.03;;;24.78;40.52
77631;BME280;66798;47.370;8.552;2023-05-06T14:01:50;96528.28;;;24.81;40.99
77631;BME280;66798;47.370;8.552;2023-05-06T14:04:18;96528.06;;;24.90;40.29
77631;BME280;66798;47.370;8.552;2023-05-06T14:06:43;96521.16;;;24.92;41.13
77631;BME280;66798;47.370;8.552;2023-05-06T14:09:10;96516.97;;;24.95;41.27
77631;BME280;66798;47.370;8.552;2023-05-06T14:11:36;96513.31;;;24.80;40.75
77631;BME280;66798;47.370;8.552;2023-05-06T14:14:01;96510.09;;;24.97;40.93
77631;BME280;66798;47.370;8.552;2023-05-06T14:16:27;96508.91;;;25.21;42.29
77631;BME280;66798;47.370;8.552;2023-05-06T14:18:52;96513.47;;;25.44;41.56
77631;BME280;66798;47.370;8.552;2023-05-06T14:21:18;96519.78;;;25.29;40.38
77631;BME280;66798;47.370;8.552;2023-05-06T14:23:43;96502.41;;;25.23;40.06
77631;BME280;66798;47.370;8.552;2023-05-06T14:26:09;96507.97;;;25.37;41.06
77631;BME280;66798;47.370;8.552;2023-05-06T14:28:34;96508.50;;;25.50;40.82
77631;BME280;66798;47.370;8.552;2023-05-06T14:30:59;96503.31;;;25.07;41.03
77631;BME280;66798;47.370;8.552;2023-05-06T14:33:25;96506.63;;;25.24;41.50
77631;BME280;66798;47.370;8.552;2023-05-06T14:35:50;96498.81;;;25.15;41.22
77631;BME280;66798;47.370;8.552;2023-05-06T14:38:16;96502.84;;;24.75;42.12
77631;BME280;66798;47.370;8.552;2023-05-06T14:40:42;96500.03;;;25.17;42.22
77631;BME280;66798;47.370;8.552;2023-05-06T14:43:08;96488.22;;;25.26;40.76
77631;BME280;66798;47.370;8.552;2023-05-06T14:45:33;96492.16;;;25.32;41.62
77631;BME280;66798;47.370;8.552;2023-05-06T14:47:59;96492.13;;;24.52;41.37
77631;BME280;66798;47.370;8.552;2023-05-06T14:50:24;96485.53;;;24.03;42.77
77631;BME280;66798;47.370;8.552;2023-05-06T14:52:50;96483.69;;;23.88;43.09
77631;BME280;66798;47.370;8.552;2023-05-06T14:55:16;96484.63;;;24.19;42.62
77631;BME280;66798;47.370;8.552;2023-05-06T14:57:41;96491.53;;;24.43;42.67
77631;BME280;66798;47.370;8.552;2023-05-06T15:00:07;96489.53;;;24.13;42.80
77631;BME280;66798;47.370;8.552;2023-05-06T15:02:37;96480.31;;;24.14;42.04
77631;BME280;66798;47.370;8.552;2023-05-06T15:05:06;96480.38;;;24.41;42.61
77631;BME280;66798;47.370;8.552;2023-05-06T15:07:32;96482.09;;;24.49;42.69
77631;BME280;66798;47.370;8.552;2023-05-06T15:09:58;96485.19;;;24.51;42.26
77631;BME280;66798;47.370;8.552;2023-05-06T15:12:23;96493.25;;;24.51;41.88
77631;BME280;66798;47.370;8.552;2023-05-06T15:14:49;96491.75;;;23.68;43.11
77631;BME280;66798;47.370;8.552;2023-05-06T15:17:14;96487.84;;;23.66;43.36
77631;BME280;66798;47.370;8.552;2023-05-06T15:19:40;96493.19;;;23.82;43.05
77631;BME280;66798;47.370;8.552;2023-05-06T15:22:05;96489.59;;;23.74;43.42
77631;BME280;66798;47.370;8.552;2023-05-06T15:24:31;96482.91;;;23.68;43.17
77631;BME280;66798;47.370;8.552;2023-05-06T15:26:56;96488.28;;;23.48;43.50
77631;BME280;66798;47.370;8.552;2023-05-06T15:29:21;96489.41;;;23.47;44.03
77631;BME280;66798;47.370;8.552;2023-05-06T15:31:47;96497.59;;;23.35;43.80
77631;BME280;66798;47.370;8.552;2023-05-06T15:34:12;96497.13;;;23.29;43.56
77631;BME280;66798;47.370;8.552;2023-05-06T15:36:39;96484.59;;;23.37;43.90
77631;BME280;66798;47.370;8.552;2023-05-06T15:39:06;96488.50;;;23.40;44.03
77631;BME280;66798;47.370;8.552;2023-05-06T15:41:33;96481.91;;;23.18;44.32
77631;BME280;66798;47.370;8.552;2023-05-06T15:44:01;96490.97;;;23.48;44.57
77631;BME280;66798;47.370;8.552;2023-05-06T15:46:28;96491.13;;;23.75;43.78
77631;BME280;66798;47.370;8.552;2023-05-06T15:48:55;96486.94;;;23.58;43.37
77631;BME280;66798;47.370;8.552;2023-05-06T15:51:20;96484.41;;;23.65;43.26
77631;BME280;66798;47.370;8.552;2023-05-06T15:53:46;96483.34;;;23.70;42.96
77631;BME280;66798;47.370;8.552;2023-05-06T15:56:13;96488.63;;;23.66;43.59
77631;BME280;66798;47.370;8.552;2023-05-06T15:58:40;96486.09;;;23.54;43.49
77631;BME280;66798;47.370;8.552;2023-05-06T16:01:06;96481.44;;;23.51;43.00
77631;BME280;66798;47.370;8.552;2023-05-06T16:03:38;96483.63;;;23.65;42.86
77631;BME280;66798;47.370;8.552;2023-05-06T16:06:08;96486.91;;;23.74;42.26
77631;BME280;66798;47.370;8.552;2023-05-06T16:08:34;96485.81;;;23.79;42.11
77631;BME280;66798;47.370;8.552;2023-05-06T16:11:00;96476.69;;;23.64;42.51
77631;BME280;66798;47.370;8.552;2023-05-06T16:13:25;96476.94;;;23.55;42.51
77631;BME280;66798;47.370;8.552;2023-05-06T16:15:51;96475.94;;;23.44;43.17
77631;BME280;66798;47.370;8.552;2023-05-06T16:18:17;96478.56;;;23.60;43.17
77631;BME280;66798;47.370;8.552;2023-05-06T16:20:43;96477.97;;;23.50;43.17
77631;BME280;66798;47.370;8.552;2023-05-06T16:23:08;96479.94;;;23.53;43.03
77631;BME280;66798;47.370;8.552;2023-05-06T16:25:34;96480.44;;;23.20;43.17
77631;BME280;66798;47.370;8.552;2023-05-06T16:28:01;96471.22;;;23.02;44.06
77631;BME280;66798;47.370;8.552;2023-05-06T16:30:27;96476.06;;;22.96;44.12
77631;BME280;66798;47.370;8.552;2023-05-06T16:32:53;96476.59;;;22.86;44.35
77631;BME280;66798;47.370;8.552;2023-05-06T16:35:18;96473.28;;;23.08;43.63
77631;BME280;66798;47.370;8.552;2023-05-06T16:37:44;96469.22;;;23.34;43.11
77631;BME280;66798;47.370;8.552;2023-05-06T16:40:11;96470.47;;;23.40;42.76
77631;BME280;66798;47.370;8.552;2023-05-06T16:42:37;96468.22;;;23.42;43.02
77631;BME280;66798;47.370;8.552;2023-05-06T16:45:04;96462.50;;;23.24;43.16
77631;BME280;66798;47.370;8.552;2023-05-06T16:47:30;96458.25;;;23.23;43.65
77631;BME280;66798;47.370;8.552;2023-05-06T16:49:55;96462.78;;;23.19;43.31
77631;BME280;66798;47.370;8.552;2023-05-06T16:52:21;96476.25;;;23.23;43.21
77631;BME280;66798;47.370;8.552;2023-05-06T16:54:46;96464.47;;;22.92;43.73
77631;BME280;66798;47.370;8.552;2023-05-06T16:57:12;96464.25;;;22.81;43.93
77631;BME280;66798;47.370;8.552;2023-05-06T16:59:37;96453.69;;;22.73;44.20
77631;BME280;66798;47.370;8.552;2023-05-06T17:02:03;96458.97;;;22.69;44.24
77631;BME280;66798;47.370;8.552;2023-05-06T17:04:28;96455.59;;;22.72;44.16
77631;BME280;66798;47.370;8.552;2023-05-06T17:06:54;96451.28;;;22.67;44.00
77631;BME280;66798;47.370;8.552;2023-05-06T17:09:21;96453.56;;;22.34;44.41
77631;BME280;66798;47.370;8.552;2023-05-06T17:11:47;96448.16;;;22.65;44.14
77631;BME280;66798;47.370;8.552;2023-05-06T17:14:12;96447.72;;;22.79;43.79
77631;BME280;66798;47.370;8.552;2023-05-06T17:16:38;96447.00;;;22.82;44.20
77631;BME280;66798;47.370;8.552;2023-05-06T17:19:04;96452.38;;;22.82;44.14
77631;BME280;66798;47.370;8.552;2023-05-06T17:21:30;96461.97;;;22.99;43.93
77631;BME280;66798;47.370;8.552;2023-05-06T17:23:57;96453.69;;;22.73;44.44
77631;BME280;66798;47.370;8.552;2023-05-06T17:26:23;96457.56;;;22.75;44.52
77631;BME280;66798;47.370;8.552;2023-05-06T17:28:48;96459.28;;;22.83;43.99
77631;BME280;66798;47.370;8.552;2023-05-06T17:31:15;96464.13;;;22.94;43.20
77631;BME280;66798;47.370;8.552;2023-05-06T17:33:44;96466.72;;;23.06;43.52
77631;BME280;66798;47.370;8.552;2023-05-06T17:36:14;96470.88;;;22.87;43.50
77631;BME280;66798;47.370;8.552;2023-05-06T17:38:41;96474.16;;;22.97;43.47
77631;BME280;66798;47.370;8.552;2023-05-06T17:41:07;96484.50;;;22.79;44.06
77631;BME280;66798;47.370;8.552;2023-05-06T17:43:32;96471.69;;;22.72;43.83
77631;BME280;66798;47.370;8.552;2023-05-06T17:45:58;96475.13;;;22.88;43.80
77631;BME280;66798;47.370;8.552;2023-05-06T17:48:24;96479.66;;;22.68;44.09
77631;BME280;66798;47.370;8.552;2023-05-06T17:50:50;96479.03;;;22.75;43.99
77631;BME280;66798;47.370;8.552;2023-05-06T17:53:15;96486.31;;;22.59;44.21
77631;BME280;66798;47.370;8.552;2023-05-06T17:55:40;96486.75;;;22.45;44.98
77631;BME280;66798;47.370;8.552;2023-05-06T17:58:06;96483.03;;;22.50;44.38
77631;BME280;66798;47.370;8.552;2023-05-06T18:00:31;96483.66;;;22.43;45.03
77631;BME280;66798;47.370;8.552;2023-05-06T18:02:58;96487.78;;;22.56;45.11
77631;BME280;66798;47.370;8.552;2023-05-06T18:05:23;96477.59;;;22.46;45.05
77631;BME280;66798;47.370;8.552;2023-05-06T18:07:50;96483.97;;;22.25;46.17
77631;BME280;66798;47.370;8.552;2023-05-06T18:10:15;96484.25;;;22.36;45.88
77631;BME280;66798;47.370;8.552;2023-05-06T18:12:41;96487.84;;;22.12;46.65
77631;BME280;66798;47.370;8.552;2023-05-06T18:15:10;96492.13;;;22.01;46.81
77631;BME280;66798;47.370;8.552;2023-05-06T18:17:35;96493.63;;;22.14;46.76
77631;BME280;66798;47.370;8.552;2023-05-06T18:20:01;96497.03;;;22.27;46.71
77631;BME280;66798;47.370;8.552;2023-05-06T18:22:27;96504.50;;;22.34;46.89
77631;BME280;66798;47.370;8.552;2023-05-06T18:24:52;96505.00;;;22.39;47.05
77631;BME280;66798;47.370;8.552;2023-05-06T18:27:20;96516.13;;;22.25;47.32
77631;BME280;66798;47.370;8.552;2023-05-06T18:29:46;96511.78;;;22.05;48.31
77631;BME280;66798;47.370;8.552;2023-05-06T18:32:11;96509.47;;;22.19;48.00
77631;BME280;66798;47.370;8.552;2023-05-06T18:34:37;96515.69;;;22.23;47.81
77631;BME280;66798;47.370;8.552;2023-05-06T18:37:02;96520.72;;;22.25;48.20
77631;BME280;66798;47.370;8.552;2023-05-06T18:39:28;96527.56;;;22.22;48.25
77631;BME280;66798;47.370;8.552;2023-05-06T18:41:54;96529.09;;;22.23;48.60
77631;BME280;66798;47.370;8.552;2023-05-06T18:44:19;96528.94;;;22.04;49.49
77631;BME280;66798;47.370;8.552;2023-05-06T18:46:45;96532.13;;;21.94;49.73
77631;BME280;66798;47.370;8.552;2023-05-06T18:49:10;96543.53;;;21.91;50.13
77631;BME280;66798;47.370;8.552;2023-05-06T18:51:38;96542.53;;;21.83;50.64
77631;BME280;66798;47.370;8.552;2023-05-06T18:54:03;96540.88;;;21.78;50.62
77631;BME280;66798;47.370;8.552;2023-05-06T18:56:29;96550.03;;;21.77;50.38
77631;BME280;66798;47.370;8.552;2023-05-06T18:58:54;96548.06;;;21.74;50.56